Time;durP1;ratioP1;P1;durP2;ratioP2;P2;SDS_P1;SDS_P2;PMS_P1;PMS_P2;Temp;Humidity;BMP_temperature;BMP_pressure;BME280_temperature;BME280_humidity;BME280_pressure;Samples;Min_cycle;Max_cycle;Signal;HPM_P1;HPM_P2
2022/06/21 00:00:46;;;;;;;5.45;1.58;;;13.30;99.90;;;;;;4196919;28;20059;-83
2022/06/21 00:02:49;;;;;;;5.45;1.00;;;13.20;99.80;;;;;;4197019;28;20381;-83
2022/06/21 00:04:50;;;;;;;5.82;1.30;;;13.20;99.90;;;;;;4197038;28;20381;-84
2022/06/21 00:06:50;;;;;;;6.82;1.50;;;13.20;99.90;;;;;;4196628;28;20044;-83
2022/06/21 00:08:52;;;;;;;4.30;1.35;;;13.20;99.90;;;;;;4197043;28;20405;-83
2022/06/21 00:10:53;;;;;;;5.35;1.23;;;13.20;99.90;;;;;;4197001;28;20056;-83
2022/06/21 00:12:53;;;;;;;4.68;1.50;;;13.20;99.90;;;;;;4196978;28;20048;-82
2022/06/21 00:14:54;;;;;;;9.45;2.30;;;13.20;99.90;;;;;;4196731;28;20040;-83
2022/06/21 00:16:55;;;;;;;5.40;1.30;;;13.10;99.90;;;;;;4196855;28;20102;-83
2022/06/21 00:18:56;;;;;;;7.35;1.85;;;13.10;99.90;;;;;;4178820;28;20051;-83
2022/06/21 00:20:57;;;;;;;3.67;1.27;;;13.10;99.90;;;;;;4196534;28;20417;-83
2022/06/21 00:22:57;;;;;;;9.73;2.17;;;13.10;99.90;;;;;;4196919;28;20052;-83
2022/06/21 00:24:58;;;;;;;7.80;1.45;;;13.00;99.90;;;;;;4196898;28;20119;-83
2022/06/21 00:26:59;;;;;;;2.42;1.20;;;13.00;99.90;;;;;;4196932;28;20048;-83
2022/06/21 00:28:59;;;;;;;4.65;1.40;;;13.00;99.90;;;;;;4197133;28;20044;-83
2022/06/21 00:31:00;;;;;;;5.38;1.30;;;13.00;99.90;;;;;;4196815;28;20102;-83
2022/06/21 00:33:01;;;;;;;5.80;1.42;;;12.90;99.90;;;;;;4196299;28;20080;-83
2022/06/21 00:35:01;;;;;;;5.63;1.50;;;12.90;99.90;;;;;;4196816;28;20078;-83
2022/06/21 00:37:02;;;;;;;8.05;1.50;;;12.80;99.90;;;;;;4196839;28;20110;-83
2022/06/21 00:39:05;;;;;;;2.60;1.10;;;12.80;99.90;;;;;;4196827;28;20056;-83
2022/06/21 00:41:07;;;;;;;5.00;1.38;;;12.80;99.90;;;;;;4196792;28;20045;-83
2022/06/21 00:43:17;;;;;;;4.97;1.83;;;12.80;99.90;;;;;;4196477;28;20044;-83
2022/06/21 00:45:31;;;;;;;;;;;12.80;99.90;;;;;;4196659;28;20053;-83
2022/06/21 00:47:42;;;;;;;3.90;1.40;;;12.80;99.90;;;;;;4196443;28;19963;-83
2022/06/21 00:49:51;;;;;;;5.47;1.55;;;12.70;99.90;;;;;;4195040;28;20053;-83
2022/06/21 00:52:02;;;;;;;2.72;1.20;;;12.70;99.90;;;;;;4196644;28;20059;-83
2022/06/21 00:54:23;;;;;;;5.20;1.63;;;12.70;99.90;;;;;;4196394;28;20408;-83
2022/06/21 00:56:32;;;;;;;6.38;1.67;;;12.70;99.90;;;;;;4186992;28;20053;-83
2022/06/21 00:58:33;;;;;;;7.20;1.83;;;12.70;99.90;;;;;;4180487;28;20037;-83
2022/06/21 01:00:49;;;;;;;7.85;1.85;;;12.70;99.90;;;;;;4181315;28;20057;-83
2022/06/21 01:02:49;;;;;;;4.10;1.77;;;12.60;99.90;;;;;;4183669;28;20049;-83
2022/06/21 01:04:54;;;;;;;7.10;2.47;;;12.70;99.90;;;;;;4183423;28;20051;-83
2022/06/21 01:06:59;;;;;;;3.95;1.30;;;12.70;99.90;;;;;;4183318;28;20059;-83
2022/06/21 01:09:11;;;;;;;6.25;1.98;;;12.70;99.90;;;;;;4182917;28;20045;-83
2022/06/21 01:11:19;;;;;;;6.20;1.52;;;12.70;99.90;;;;;;4183229;28;20532;-83
2022/06/21 01:13:23;;;;;;;10.05;2.35;;;12.60;99.90;;;;;;4183252;28;20493;-83
2022/06/21 01:15:32;;;;;;;5.45;2.10;;;12.60;99.90;;;;;;4182708;28;20164;-83
2022/06/21 01:17:34;;;;;;;;;;;12.50;99.90;;;;;;4183810;28;20102;-83
2022/06/21 01:19:51;;;;;;;7.20;1.70;;;12.50;99.90;;;;;;4182566;28;20261;-83
2022/06/21 01:21:58;;;;;;;2.78;1.30;;;12.50;99.90;;;;;;4185396;28;20041;-83
2022/06/21 01:24:04;;;;;;;7.75;1.65;;;12.50;99.90;;;;;;4191202;28;20044;-82
2022/06/21 01:26:24;;;;;;;9.88;1.88;;;12.50;99.90;;;;;;4183085;28;20052;-83
2022/06/21 01:28:25;;;;;;;5.28;1.63;;;12.40;99.90;;;;;;4194898;28;20037;-83
2022/06/21 01:30:28;;;;;;;10.02;2.33;;;12.40;99.90;;;;;;4183575;28;20049;-83
2022/06/21 01:32:29;;;;;;;8.68;2.58;;;12.50;99.90;;;;;;4183271;28;20397;-83
2022/06/21 01:34:30;;;;;;;7.88;2.10;;;12.40;99.90;;;;;;4181579;28;20041;-82
2022/06/21 01:36:35;;;;;;;8.25;1.90;;;12.40;99.90;;;;;;4183035;28;20056;-83
2022/06/21 01:39:08;;;;;;;5.30;1.73;;;12.40;99.90;;;;;;4182763;28;20131;-83
2022/06/21 01:41:13;;;;;;;7.00;2.03;;;12.30;99.90;;;;;;4178043;28;20124;-83
2022/06/21 01:43:28;;;;;;;6.00;2.10;;;12.30;99.90;;;;;;4182629;28;20545;-83
2022/06/21 01:46:05;;;;;;;3.97;1.65;;;12.30;99.90;;;;;;4182791;28;20402;-83
2022/06/21 01:48:13;;;;;;;4.68;2.35;;;12.30;99.90;;;;;;4182751;28;20124;-83
2022/06/21 01:50:15;;;;;;;11.10;2.30;;;12.30;99.90;;;;;;4182563;28;20410;-83
2022/06/21 01:52:23;;;;;;;7.50;2.05;;;12.30;99.90;;;;;;4181716;28;20045;-83
2022/06/21 01:54:30;;;;;;;4.40;2.05;;;12.30;99.90;;;;;;4192926;28;20101;-83
2022/06/21 01:56:36;;;;;;;9.38;2.20;;;12.30;99.90;;;;;;4198465;28;20049;-83
2022/06/21 01:58:42;;;;;;;9.98;2.42;;;12.20;99.90;;;;;;4198727;28;20400;-82
2022/06/21 02:00:50;;;;;;;8.63;1.98;;;12.20;99.90;;;;;;4198483;28;20080;-83
2022/06/21 02:02:57;;;;;;;4.82;1.90;;;12.20;99.90;;;;;;4185484;28;20110;-83
2022/06/21 02:05:07;;;;;;;6.15;2.55;;;12.20;99.90;;;;;;4182227;28;20484;-83
2022/06/21 02:07:13;;;;;;;10.00;1.98;;;12.20;99.90;;;;;;4182330;28;20049;-83
2022/06/21 02:09:23;;;;;;;10.05;2.28;;;12.10;99.90;;;;;;4182648;28;20055;-83
2022/06/21 02:11:33;;;;;;;5.95;2.13;;;12.10;99.90;;;;;;4196827;28;20051;-83
2022/06/21 02:13:39;;;;;;;6.15;1.98;;;12.10;99.90;;;;;;4197128;28;20089;-82
2022/06/21 02:15:44;;;;;;;6.80;2.42;;;12.10;99.90;;;;;;4198098;28;20049;-82
2022/06/21 02:17:47;;;;;;;7.78;2.63;;;12.10;99.90;;;;;;4198295;28;20127;-82
2022/06/21 02:20:21;;;;;;;10.10;2.90;;;12.10;99.90;;;;;;4198453;28;20048;-83
2022/06/21 02:22:25;;;;;;;5.63;2.55;;;12.10;99.90;;;;;;4198641;28;20049;-82
2022/06/21 02:24:28;;;;;;;3.95;2.00;;;12.10;99.90;;;;;;4196663;28;20404;-83
2022/06/21 02:26:32;;;;;;;8.75;1.98;;;12.00;99.90;;;;;;4194846;28;20037;-83
2022/06/21 02:28:34;;;;;;;8.15;2.78;;;12.00;99.90;;;;;;4181600;28;20041;-82
2022/06/21 02:30:38;;;;;;;6.57;2.15;;;11.90;99.90;;;;;;4181627;28;20137;-83
2022/06/21 02:32:41;;;;;;;5.50;2.25;;;11.90;99.90;;;;;;4180258;28;20099;-84
2022/06/21 02:34:44;;;;;;;6.47;2.45;;;11.90;99.90;;;;;;4181810;28;20075;-84
2022/06/21 02:36:50;;;;;;;6.65;2.63;;;11.90;99.90;;;;;;4181775;28;20041;-84
2022/06/21 02:38:56;;;;;;;5.38;2.72;;;11.90;99.90;;;;;;4181069;28;20059;-83
2022/06/21 02:41:07;;;;;;;9.38;3.17;;;11.90;99.90;;;;;;4181432;28;20048;-82
2022/06/21 02:43:23;;;;;;;14.90;3.35;;;11.90;99.90;;;;;;4181688;28;20123;-82
2022/06/21 02:45:44;;;;;;;5.45;2.42;;;11.90;99.90;;;;;;4194025;28;20044;-83
2022/06/21 02:47:49;;;;;;;4.68;2.17;;;11.90;99.90;;;;;;4196899;28;20051;-83
2022/06/21 02:49:57;;;;;;;10.60;2.42;;;11.80;99.90;;;;;;4197833;28;20045;-83
2022/06/21 02:52:07;;;;;;;6.28;2.40;;;11.80;99.90;;;;;;4197608;28;20404;-82
2022/06/21 02:54:17;;;;;;;11.18;2.95;;;11.70;99.90;;;;;;4197918;28;20472;-83
2022/06/21 02:56:26;;;;;;;10.98;2.92;;;11.80;99.90;;;;;;4197903;28;20049;-83
2022/06/21 02:58:37;;;;;;;9.73;2.92;;;11.30;99.90;;;;;;4196069;28;20082;-82
2022/06/21 03:00:38;;;;;;;4.38;1.80;;;11.70;99.90;;;;;;4170588;28;20439;-83
2022/06/21 03:02:39;;;;;;;7.28;2.38;;;11.70;99.90;;;;;;4180937;28;20045;-84
2022/06/21 03:04:50;;;;;;;7.00;2.50;;;11.60;99.90;;;;;;4179756;28;20041;-83
2022/06/21 03:06:51;;;;;;;7.43;2.30;;;11.60;99.90;;;;;;4181006;28;20106;-83
2022/06/21 03:09:00;;;;;;;11.18;2.33;;;11.60;99.90;;;;;;4180657;28;20048;-83
2022/06/21 03:11:01;;;;;;;4.53;2.40;;;11.60;99.90;;;;;;4181117;28;20413;-83
2022/06/21 03:13:24;;;;;;;5.38;2.30;;;11.60;99.90;;;;;;4180879;28;20048;-83
2022/06/21 03:15:24;;;;;;;5.72;2.50;;;11.50;99.90;;;;;;4182217;28;20576;-83
2022/06/21 03:17:35;;;;;;;8.00;2.55;;;11.50;99.90;;;;;;4183659;28;20044;-83
2022/06/21 03:19:50;;;;;;;6.70;2.42;;;11.40;99.90;;;;;;4201135;28;20492;-84
2022/06/21 03:21:52;;;;;;;9.18;2.33;;;11.40;99.90;;;;;;4195898;28;20044;-83
2022/06/21 03:23:53;;;;;;;7.35;3.00;;;11.40;99.90;;;;;;4183774;28;20057;-83
2022/06/21 03:26:01;;;;;;;6.38;2.53;;;11.40;99.90;;;;;;4185632;28;20051;-85
2022/06/21 03:28:19;;;;;;;9.90;2.72;;;11.40;99.90;;;;;;4194710;28;20101;-83
2022/06/21 03:30:23;;;;;;;4.95;2.40;;;11.40;99.90;;;;;;4185992;28;20468;-84
2022/06/21 03:32:26;;;;;;;6.00;2.42;;;11.40;99.90;;;;;;4185580;28;20041;-83
2022/06/21 03:34:28;;;;;;;9.32;2.95;;;11.50;99.90;;;;;;4182898;28;20083;-86
2022/06/21 03:36:30;;;;;;;6.85;2.60;;;11.50;99.90;;;;;;4186106;28;20036;-84
2022/06/21 03:38:31;;;;;;;8.85;2.80;;;11.00;99.90;;;;;;4168414;28;20049;-83
2022/06/21 03:42:55;;;;;;;7.18;2.20;;;11.60;99.90;;;;;;4192932;28;20143;-84
2022/06/21 03:45:01;;;;;;;7.40;3.03;;;11.60;99.90;;;;;;4180913;28;20084;-84
2022/06/21 03:47:03;;;;;;;8.48;2.50;;;11.60;99.90;;;;;;4181042;28;20497;-84
2022/06/21 03:49:14;;;;;;;4.07;2.38;;;11.70;99.90;;;;;;4179234;28;20076;-84
2022/06/21 03:51:28;;;;;;;7.75;3.03;;;11.70;99.90;;;;;;4180958;28;20044;-84
2022/06/21 03:53:35;;;;;;;9.13;2.83;;;11.80;99.90;;;;;;4180485;28;20098;-84
2022/06/21 03:55:51;;;;;;;6.68;2.60;;;11.80;99.90;;;;;;4180704;28;20406;-84
2022/06/21 03:58:02;;;;;;;5.68;2.45;;;11.90;99.90;;;;;;4180796;28;20452;-84
2022/06/21 04:00:11;;;;;;;5.70;2.25;;;11.90;99.90;;;;;;4179198;28;20049;-84
2022/06/21 04:02:20;;;;;;;;;;;12.00;99.90;;;;;;4181195;28;20090;-84
2022/06/21 04:04:35;;;;;;;5.07;2.70;;;12.10;99.90;;;;;;4180359;28;19931;-84
2022/06/21 04:06:58;;;;;;;9.13;2.90;;;12.10;99.90;;;;;;4180581;28;20052;-84
2022/06/21 04:09:03;;;;;;;5.10;2.50;;;12.20;99.90;;;;;;4180767;28;20041;-84
2022/06/21 04:11:09;;;;;;;6.82;2.50;;;12.20;99.90;;;;;;4180648;28;20470;-84
2022/06/21 04:13:22;;;;;;;7.85;2.78;;;12.20;99.90;;;;;;4180631;28;20386;-84
2022/06/21 04:15:26;;;;;;;9.75;3.53;;;12.30;99.90;;;;;;4181015;28;20049;-83
2022/06/21 04:17:36;;;;;;;6.50;2.60;;;12.30;99.90;;;;;;4181204;28;20091;-84
2022/06/21 04:19:53;;;;;;;6.93;2.90;;;12.30;99.90;;;;;;4181007;28;20049;-84
2022/06/21 04:22:10;;;;;;;7.15;3.15;;;12.40;99.90;;;;;;4181109;28;20061;-84
2022/06/21 04:24:14;;;;;;;8.05;2.47;;;12.40;99.90;;;;;;4181563;28;20171;-84
2022/06/21 04:26:26;;;;;;;4.45;2.85;;;12.50;99.90;;;;;;4186890;28;20052;-84
2022/06/21 04:28:39;;;;;;;6.65;2.67;;;12.50;99.90;;;;;;4197354;28;20079;-83
2022/06/21 04:30:55;;;;;;;3.35;2.47;;;12.60;99.90;;;;;;4198015;28;20055;-84
2022/06/21 04:32:56;;;;;;;5.70;2.90;;;12.60;99.90;;;;;;4181580;28;20045;-84
2022/06/21 04:35:13;;;;;;;6.70;2.38;;;12.60;99.90;;;;;;4181570;28;20120;-84
2022/06/21 04:37:20;;;;;;;9.13;2.28;;;12.70;99.90;;;;;;4184368;28;20048;-85
2022/06/21 04:39:31;;;;;;;6.55;2.53;;;12.70;99.90;;;;;;4188685;28;20544;-83
2022/06/21 04:41:48;;;;;;;6.13;2.58;;;12.70;99.90;;;;;;4201089;28;20447;-84
2022/06/21 04:43:53;;;;;;;5.43;2.10;;;12.80;99.90;;;;;;4184236;28;20040;-83
2022/06/21 04:46:05;;;;;;;6.38;2.97;;;12.80;99.90;;;;;;4183894;28;20148;-83
2022/06/21 04:48:24;;;;;;;7.75;2.30;;;12.90;99.90;;;;;;4182681;28;20124;-83
2022/06/21 04:50:53;;;;;;;4.80;2.42;;;12.90;99.90;;;;;;4181662;28;20055;-83
2022/06/21 04:52:56;;;;;;;9.07;3.60;;;13.00;99.90;;;;;;4183415;28;20128;-83
2022/06/21 04:54:58;;;;;;;6.53;2.63;;;13.00;99.90;;;;;;4183622;28;20565;-85
2022/06/21 04:57:24;;;;;;;6.05;2.80;;;13.00;99.90;;;;;;4183608;28;20079;-84
2022/06/21 04:59:31;;;;;;;7.70;3.33;;;13.00;99.90;;;;;;4181743;28;20045;-85
2022/06/21 05:01:34;;;;;;;10.05;3.17;;;13.00;99.90;;;;;;4189627;28;20053;-84
2022/06/21 05:03:41;;;;;;;5.22;2.45;;;13.10;99.90;;;;;;4182418;28;20049;-84
2022/06/21 05:05:43;;;;;;;9.85;2.83;;;13.10;99.90;;;;;;4183466;28;20107;-84
2022/06/21 05:07:52;;;;;;;6.22;2.42;;;13.20;99.90;;;;;;4182828;28;20095;-85
2022/06/21 05:09:55;;;;;;;7.03;2.88;;;13.20;99.90;;;;;;4183562;28;20771;-84
2022/06/21 05:12:07;;;;;;;10.02;2.28;;;13.20;99.90;;;;;;4183108;28;20044;-83
2022/06/21 05:14:19;;;;;;;7.93;2.53;;;13.30;99.90;;;;;;4182160;28;20127;-83
2022/06/21 05:16:27;;;;;;;5.75;2.13;;;13.40;99.90;;;;;;4182708;28;20049;-83
2022/06/21 05:18:42;;;;;;;7.43;2.25;;;13.40;99.90;;;;;;4188786;28;20499;-83
2022/06/21 05:21:08;;;;;;;4.47;1.98;;;13.40;99.90;;;;;;4198945;28;20048;-85
2022/06/21 05:23:12;;;;;;;4.10;2.17;;;13.50;99.90;;;;;;4199534;28;20045;-84
2022/06/21 05:25:24;;;;;;;8.95;2.30;;;13.50;99.90;;;;;;4201016;28;20476;-84
2022/06/21 05:27:34;;;;;;;5.85;2.63;;;13.50;99.90;;;;;;4198900;28;20434;-84
2022/06/21 05:30:12;;;;;;;7.90;2.38;;;13.50;99.90;;;;;;4199489;28;20040;-84
2022/06/21 05:32:28;;;;;;;8.27;2.58;;;13.60;99.90;;;;;;4190557;28;20474;-86
2022/06/21 05:34:36;;;;;;;6.85;3.35;;;13.60;99.90;;;;;;4164836;28;20054;-86
2022/06/21 05:37:10;;;;;;;10.15;3.20;;;13.60;99.90;;;;;;4182748;28;20052;-86
2022/06/21 05:39:22;;;;;;;9.73;2.50;;;13.60;99.90;;;;;;4173856;28;20049;-86
2022/06/21 05:41:32;;;;;;;8.70;2.50;;;13.60;99.90;;;;;;4181188;28;20124;-87
2022/06/21 05:43:37;;;;;;;7.75;2.70;;;13.60;99.90;;;;;;4182629;28;20048;-87
2022/06/21 05:45:39;;;;;;;11.38;3.30;;;13.70;99.90;;;;;;4181292;28;20124;-87
2022/06/21 05:47:41;;;;;;;10.77;2.63;;;13.70;99.90;;;;;;4180842;28;20045;-86
2022/06/21 05:49:42;;;;;;;5.60;2.78;;;13.70;99.90;;;;;;4182669;28;20059;-86
2022/06/21 05:51:43;;;;;;;10.90;2.80;;;13.80;99.90;;;;;;4197683;28;20131;-86
2022/06/21 05:53:48;;;;;;;5.95;2.75;;;13.90;99.90;;;;;;4197898;28;20667;-86
2022/06/21 05:55:49;;;;;;;6.78;2.55;;;13.90;99.90;;;;;;4198931;28;20041;-86
2022/06/21 05:58:00;;;;;;;6.18;2.83;;;14.00;99.90;;;;;;4197431;28;20201;-86
2022/06/21 06:00:03;;;;;;;11.05;3.13;;;14.10;99.90;;;;;;4197668;28;20040;-86
2022/06/21 06:02:32;;;;;;;5.82;2.20;;;14.10;99.90;;;;;;4195635;28;20056;-86
2022/06/21 06:04:49;;;;;;;5.32;1.92;;;14.20;99.90;;;;;;4182518;28;20065;-85
2022/06/21 06:06:53;;;;;;;4.70;2.00;;;14.30;99.90;;;;;;4182581;28;20129;-85
2022/06/21 06:09:00;;;;;;;4.60;2.17;;;14.30;99.90;;;;;;4175286;28;20041;-86
2022/06/21 06:11:03;;;;;;;5.55;1.80;;;14.40;99.90;;;;;;4199215;28;20210;-85
2022/06/21 06:13:23;;;;;;;6.53;1.67;;;14.50;99.90;;;;;;4198296;28;20072;-86
2022/06/21 06:15:33;;;;;;;6.63;2.42;;;14.50;99.90;;;;;;4199567;28;20412;-86
2022/06/21 06:17:54;;;;;;;8.27;1.33;;;14.50;99.90;;;;;;4199698;28;20048;-86
2022/06/21 06:20:16;;;;;;;8.90;1.80;;;14.60;99.90;;;;;;4198036;28;20551;-86
2022/06/21 06:22:29;;;;;;;3.80;1.75;;;14.60;99.90;;;;;;4198440;28;20127;-86
2022/06/21 06:24:55;;;;;;;4.05;1.60;;;14.70;99.90;;;;;;4181980;28;20053;-87
2022/06/21 06:26:59;;;;;;;10.50;2.63;;;14.80;99.90;;;;;;4175894;28;20428;-87
2022/06/21 06:29:15;;;;;;;4.75;1.77;;;14.60;99.90;;;;;;4198819;28;20037;-87
2022/06/21 06:31:30;;;;;;;7.80;1.85;;;14.70;99.90;;;;;;4181328;28;20051;-87
2022/06/21 06:33:37;;;;;;;6.95;1.85;;;14.70;99.90;;;;;;4199269;28;20048;-87
2022/06/21 06:35:38;;;;;;;5.32;1.67;;;14.80;99.90;;;;;;4198145;28;20059;-88
2022/06/21 06:37:42;;;;;;;4.15;1.70;;;15.00;99.90;;;;;;4199478;28;20475;-88
2022/06/21 06:39:43;;;;;;;4.57;1.58;;;15.00;99.90;;;;;;4197430;28;20091;-86
2022/06/21 06:41:59;;;;;;;6.82;2.10;;;15.00;99.90;;;;;;4198017;28;20044;-86
2022/06/21 06:44:05;;;;;;;4.30;2.00;;;15.00;99.90;;;;;;4199076;28;20071;-85
2022/06/21 06:46:29;;;;;;;6.40;1.83;;;15.10;99.90;;;;;;4197796;28;20052;-86
2022/06/21 06:48:32;;;;;;;7.63;2.10;;;15.20;99.90;;;;;;4198987;28;20473;-86
2022/06/21 06:50:51;;;;;;;3.72;1.33;;;15.40;99.90;;;;;;4198837;28;20447;-86
2022/06/21 06:52:58;;;;;;;9.65;2.10;;;15.50;99.90;;;;;;4199160;28;20048;-86
2022/06/21 06:55:14;;;;;;;3.30;1.80;;;15.60;99.90;;;;;;4199153;28;20419;-86
2022/06/21 06:57:42;;;;;;;5.85;2.63;;;15.60;99.90;;;;;;4174005;28;20081;-87
2022/06/21 06:59:44;;;;;;;6.65;2.05;;;15.60;99.90;;;;;;4180531;28;20045;-85
2022/06/21 07:01:59;;;;;;;10.48;2.53;;;15.60;99.90;;;;;;4185065;28;20028;-87
2022/06/21 07:04:04;;;;;;;6.05;2.40;;;15.60;99.90;;;;;;4188508;28;20401;-87
2022/06/21 07:06:19;;;;;;;5.35;2.45;;;15.60;99.90;;;;;;4184267;28;20458;-86
2022/06/21 07:08:45;;;;;;;4.30;2.40;;;15.70;99.90;;;;;;4187255;28;20060;-86
2022/06/21 07:10:49;;;;;;;5.03;2.60;;;15.80;99.90;;;;;;4187884;28;20447;-87
2022/06/21 07:12:52;;;;;;;6.28;2.75;;;15.90;99.90;;;;;;4185248;28;20049;-87
2022/06/21 07:14:54;;;;;;;5.88;2.38;;;16.00;99.90;;;;;;4181404;28;20123;-87
2022/06/21 07:17:20;;;;;;;5.10;2.10;;;16.10;99.90;;;;;;4184216;28;20124;-87
2022/06/21 07:19:21;;;;;;;8.60;2.47;;;16.20;99.60;;;;;;4180751;28;20041;-87
2022/06/21 07:21:23;;;;;;;7.32;2.00;;;16.30;99.30;;;;;;4191112;28;20465;-87
2022/06/21 07:23:25;;;;;;;4.60;2.20;;;;;;;;;;4174869;28;20497;-87
2022/06/21 07:25:34;;;;;;;5.90;2.00;;;;;;;;;;4175498;28;20497;-87
2022/06/21 07:27:36;;;;;;;3.00;1.80;;;;;;;;;;4194931;28;20072;-86
2022/06/21 07:29:46;;;;;;;7.15;2.55;;;;;;;;;;4166820;28;20045;-86
2022/06/21 07:31:53;;;;;;;5.85;2.03;;;;;;;;;;4192601;28;20037;-87
2022/06/21 07:34:08;;;;;;;5.82;2.28;;;;;;;;;;4193955;28;20428;-87
2022/06/21 07:36:12;;;;;;;3.95;1.90;;;;;;;;;;4184795;28;20405;-85
2022/06/21 07:38:33;;;;;;;5.50;2.25;;;16.30;98.70;;;;;;4166607;28;20529;-86
2022/06/21 07:40:38;;;;;;;7.10;2.53;;;17.20;97.10;;;;;;4192711;28;20076;-86
2022/06/21 07:42:45;;;;;;;6.75;2.97;;;17.30;96.60;;;;;;4190326;28;20131;-86
2022/06/21 07:44:53;;;;;;;11.52;3.13;;;17.50;96.80;;;;;;4185458;28;20040;-87
2022/06/21 07:47:00;;;;;;;3.88;2.30;;;17.50;96.50;;;;;;4186785;28;20165;-86
2022/06/21 07:49:20;;;;;;;4.35;2.05;;;17.50;96.20;;;;;;4192135;28;20051;-87
2022/06/21 07:51:26;;;;;;;7.28;2.58;;;17.50;95.80;;;;;;4185819;28;20214;-86
2022/06/21 07:53:27;;;;;;;5.30;1.85;;;17.60;96.00;;;;;;4191759;28;20127;-87
2022/06/21 07:55:50;;;;;;;9.27;2.35;;;17.60;95.70;;;;;;4168443;28;20076;-87
2022/06/21 07:57:58;;;;;;;4.72;2.30;;;17.60;94.80;;;;;;4167071;28;20052;-87
2022/06/21 08:00:06;;;;;;;4.57;2.30;;;17.70;95.40;;;;;;4191971;28;20033;-86
2022/06/21 08:07:14;;;;;;;8.35;2.42;;;17.90;94.40;;;;;;4191978;28;20124;-87
2022/06/21 08:09:29;;;;;;;5.18;2.72;;;17.80;93.90;;;;;;4187631;28;20060;-86
2022/06/21 08:11:39;;;;;;;7.57;2.20;;;17.90;94.00;;;;;;4190623;28;20400;-87
2022/06/21 08:13:40;;;;;;;7.05;2.28;;;18.10;94.40;;;;;;4194251;28;20044;-86
2022/06/21 08:15:55;;;;;;;11.68;3.38;;;18.40;94.40;;;;;;4188402;28;20057;-86
2022/06/21 08:18:05;;;;;;;6.50;1.95;;;18.60;94.00;;;;;;4187559;28;20094;-87
2022/06/21 08:20:16;;;;;;;6.00;1.60;;;18.80;93.40;;;;;;4196267;28;20179;-87
2022/06/21 08:22:21;;;;;;;2.72;1.50;;;18.50;91.80;;;;;;4194422;28;20055;-86
2022/06/21 08:24:47;;;;;;;4.57;1.85;;;18.20;91.90;;;;;;4194383;28;20056;-86
2022/06/21 08:26:57;;;;;;;4.53;1.88;;;18.20;91.90;;;;;;4182906;28;20085;-86
2022/06/21 08:29:18;;;;;;;5.80;2.78;;;18.20;92.20;;;;;;4194376;28;20379;-86
2022/06/21 08:31:27;;;;;;;10.63;2.53;;;18.30;92.30;;;;;;4195574;28;20527;-86
2022/06/21 08:33:34;;;;;;;6.60;2.63;;;18.50;92.50;;;;;;4194221;28;20457;-86
2022/06/21 08:35:39;;;;;;;6.35;2.03;;;18.70;92.70;;;;;;4194356;28;20493;-86
2022/06/21 08:37:40;;;;;;;3.28;1.73;;;18.70;92.40;;;;;;4189847;28;20108;-87
2022/06/21 08:39:56;;;;;;;4.47;2.03;;;18.70;92.20;;;;;;4187258;28;20044;-86
2022/06/21 08:42:29;;;;;;;6.90;2.28;;;18.50;91.50;;;;;;4186573;28;20433;-86
2022/06/21 08:45:40;;;;;;;5.18;2.72;;;18.60;91.30;;;;;;4183946;28;20258;-86
2022/06/21 08:47:17;;;;;;;3.28;1.80;;;18.70;91.30;;;;;;4189478;28;20052;-86
2022/06/21 08:49:36;;;;;;;5.88;1.95;;;18.80;91.70;;;;;;4188807;28;20041;-87
2022/06/21 08:52:22;;;;;;;3.42;1.40;;;19.00;91.00;;;;;;4186029;28;20049;-86
2022/06/21 08:54:41;;;;;;;3.17;1.33;;;19.20;90.90;;;;;;4193376;28;20110;-86
2022/06/21 08:56:45;;;;;;;5.45;1.88;;;19.30;89.70;;;;;;4197496;28;20044;-86
2022/06/21 08:59:22;;;;;;;8.90;1.98;;;19.30;90.00;;;;;;4170014;28;20556;-85
2022/06/21 09:01:33;;;;;;;9.57;1.73;;;19.20;87.90;;;;;;4186740;28;20040;-86
2022/06/21 09:03:42;;;;;;;5.53;1.50;;;19.30;88.70;;;;;;4170335;28;20040;-87
2022/06/21 09:05:57;;;;;;;8.23;2.23;;;19.40;87.60;;;;;;4195748;28;20040;-86
2022/06/21 09:08:22;;;;;;;3.65;1.50;;;19.60;85.90;;;;;;4193696;28;20304;-86
2022/06/21 09:10:37;;;;;;;5.13;1.77;;;19.70;86.30;;;;;;4187568;28;20045;-86
2022/06/21 09:12:57;;;;;;;5.97;1.70;;;20.00;87.90;;;;;;4174020;28;20041;-86
2022/06/21 09:15:09;;;;;;;9.50;3.25;;;20.30;86.00;;;;;;4183052;28;20100;-87
2022/06/21 09:17:28;;;;;;;3.00;1.60;;;20.60;86.90;;;;;;4183436;28;20053;-86
2022/06/21 09:19:35;;;;;;;6.60;2.15;;;;;;;;;;4182791;28;20087;-86
2022/06/21 09:21:47;;;;;;;4.63;1.90;;;;;;;;;;4181392;28;20378;-87
2022/06/21 09:23:54;;;;;;;5.35;1.95;;;20.80;86.50;;;;;;4184416;28;20048;-85
2022/06/21 09:26:07;;;;;;;4.60;1.80;;;21.60;84.90;;;;;;4183162;28;20052;-86
2022/06/21 09:28:29;;;;;;;5.97;2.13;;;21.60;82.80;;;;;;4185242;28;20037;-85
2022/06/21 09:30:35;;;;;;;6.25;1.88;;;21.50;81.20;;;;;;4199429;28;20574;-86
2022/06/21 09:32:44;;;;;;;5.85;1.88;;;21.60;82.80;;;;;;4198630;28;20532;-86
2022/06/21 09:35:05;;;;;;;5.50;1.90;;;21.60;81.60;;;;;;4198033;28;20044;-86
2022/06/21 09:37:24;;;;;;;7.88;2.05;;;21.70;82.30;;;;;;4199334;28;20041;-86
2022/06/21 09:39:42;;;;;;;2.90;1.50;;;22.00;82.20;;;;;;4196836;28;20096;-85
2022/06/21 09:42:00;;;;;;;4.68;1.73;;;22.20;81.30;;;;;;4197662;28;20048;-86
2022/06/21 09:44:19;;;;;;;6.07;1.50;;;22.30;79.40;;;;;;4198036;28;20053;-86
2022/06/21 09:46:38;;;;;;;3.03;1.60;;;22.40;79.70;;;;;;4199073;28;20115;-86
2022/06/21 09:48:48;;;;;;;2.80;1.70;;;22.40;75.60;;;;;;4198626;28;20165;-86
2022/06/21 09:51:01;;;;;;;7.97;1.90;;;22.20;75.80;;;;;;4194934;28;20120;-86
2022/06/21 09:53:09;;;;;;;3.63;1.70;;;21.80;75.60;;;;;;4184068;28;20052;-85
2022/06/21 09:55:33;;;;;;;3.85;1.50;;;21.50;75.90;;;;;;4182412;28;20049;-86
2022/06/21 09:57:49;;;;;;;8.38;1.50;;;21.20;76.00;;;;;;4165242;28;20072;-85
2022/06/21 10:00:13;;;;;;;4.85;1.65;;;21.20;75.80;;;;;;4165697;28;20382;-85
2022/06/21 10:02:26;;;;;;;5.00;1.70;;;21.00;76.20;;;;;;4165489;28;20059;-85
2022/06/21 10:05:14;;;;;;;5.28;2.30;;;20.90;74.90;;;;;;4183020;28;20056;-85
2022/06/21 10:07:33;;;;;;;4.55;1.73;;;20.70;74.30;;;;;;4166322;28;20053;-86
2022/06/21 10:09:37;;;;;;;3.42;2.03;;;20.90;77.80;;;;;;4165278;28;20488;-86
2022/06/21 10:11:56;;;;;;;3.15;1.80;;;21.40;78.50;;;;;;4186514;28;20129;-86
2022/06/21 10:14:03;;;;;;;;;;;21.80;77.20;;;;;;4181883;28;20394;-85
2022/06/21 10:16:35;;;;;;;6.85;2.10;;;21.70;73.80;;;;;;4181877;28;19921;-86
2022/06/21 10:18:44;;;;;;;7.13;2.10;;;21.60;74.60;;;;;;4194454;28;20083;-86
2022/06/21 10:20:54;;;;;;;4.43;1.70;;;21.80;77.60;;;;;;4198117;28;20048;-87
2022/06/21 10:23:17;;;;;;;4.22;1.63;;;21.90;72.70;;;;;;4179725;28;20049;-86
2022/06/21 10:25:44;;;;;;;4.15;1.58;;;21.90;72.00;;;;;;4164912;28;20402;-87
2022/06/21 10:28:18;;;;;;;5.32;1.70;;;22.10;72.50;;;;;;4181904;28;20448;-86
2022/06/21 10:30:51;;;;;;;3.47;1.70;;;22.40;72.60;;;;;;4183495;28;20068;-86
2022/06/21 10:33:03;;;;;;;4.88;1.70;;;22.20;69.60;;;;;;4164213;28;20620;-87
2022/06/21 10:35:26;;;;;;;2.47;1.27;;;22.10;72.00;;;;;;4167785;28;20057;-86
2022/06/21 10:38:08;;;;;;;2.58;1.17;;;22.20;71.30;;;;;;4198582;28;20048;-86
2022/06/21 10:40:37;;;;;;;2.88;1.40;;;22.80;69.70;;;;;;4191678;28;20127;-86
2022/06/21 10:42:58;;;;;;;5.55;1.63;;;23.00;71.70;;;;;;4198695;28;20093;-86
2022/06/21 10:45:12;;;;;;;4.05;1.48;;;22.80;68.40;;;;;;4189018;28;20562;-86
2022/06/21 10:47:52;;;;;;;4.82;1.48;;;22.80;71.30;;;;;;4165609;28;20041;-86
2022/06/21 10:50:15;;;;;;;2.13;1.13;;;22.70;66.00;;;;;;4156212;28;20480;-86
2022/06/21 10:52:58;;;;;;;9.32;1.20;;;23.20;64.30;;;;;;4174053;28;20088;-85
2022/06/21 10:55:17;;;;;;;3.55;1.42;;;23.10;66.20;;;;;;4182270;28;20479;-86
2022/06/21 10:57:40;;;;;;;5.55;1.70;;;23.30;65.60;;;;;;4183207;28;20037;-85
2022/06/21 11:02:26;;;;;;;3.00;1.08;;;23.40;64.80;;;;;;4181485;28;20053;-84
2022/06/21 11:04:48;;;;;;;4.78;1.55;;;24.20;64.20;;;;;;4176949;28;20057;-85
2022/06/21 11:07:16;;;;;;;3.58;1.00;;;24.50;64.00;;;;;;4184949;28;20036;-86
2022/06/21 11:09:43;;;;;;;3.25;0.90;;;24.80;64.30;;;;;;4176005;28;20098;-86
2022/06/21 11:11:56;;;;;;;2.47;1.08;;;25.10;62.90;;;;;;4187132;28;20103;-86
2022/06/21 11:13:56;;;;;;;2.58;0.80;;;25.30;60.70;;;;;;4193996;28;20055;-87
2022/06/21 11:16:07;;;;;;;2.50;1.00;;;25.60;61.60;;;;;;4186120;28;20494;-86
2022/06/21 11:18:29;;;;;;;1.75;1.00;;;25.70;61.20;;;;;;4186263;28;20500;-86
2022/06/21 11:20:55;;;;;;;4.03;1.10;;;26.20;61.50;;;;;;4184475;28;20071;-87
2022/06/21 11:23:18;;;;;;;4.10;1.55;;;26.30;60.20;;;;;;4183694;28;20037;-88
2022/06/21 11:25:31;;;;;;;2.17;1.30;;;26.70;59.10;;;;;;4187283;28;20061;-88
2022/06/21 11:28:05;;;;;;;1.83;1.08;;;27.00;57.60;;;;;;4182282;28;20052;-86
2022/06/21 11:30:13;;;;;;;4.82;1.15;;;27.10;54.90;;;;;;4193744;28;20058;-88
2022/06/21 11:32:27;;;;;;;2.03;0.95;;;27.40;55.80;;;;;;4196756;28;20041;-85
2022/06/21 11:34:52;;;;;;;4.90;0.93;;;27.40;56.80;;;;;;4165334;28;20053;-86
2022/06/21 11:37:23;;;;;;;4.03;1.00;;;27.10;57.70;;;;;;4180118;28;20053;-86